sensor_id;sensor_type;location;lat;lon;timestamp;temperature;humidity
46438;DHT22;32137;48.728;9.142;2023-04-21T00:01:02;4.90;1.00
46438;DHT22;32137;48.728;9.142;2023-04-21T00:03:28;4.90;1.00
46438;DHT22;32137;48.728;9.142;2023-04-21T00:05:54;4.90;1.00
46438;DHT22;32137;48.728;9.142;2023-04-21T00:08:20;4.90;1.00
46438;DHT22;32137;48.728;9.142;2023-04-21T00:10:46;4.90;1.00
46438;DHT22;32137;48.728;9.142;2023-04-21T00:13:11;5.00;1.00
46438;DHT22;32137;48.728;9.142;2023-04-21T00:15:37;4.90;1.00
46438;DHT22;32137;48.728;9.142;2023-04-21T00:18:02;4.90;1.00
46438;DHT22;32137;48.728;9.142;2023-04-21T00:20:28;4.90;1.00
46438;DHT22;32137;48.728;9.142;2023-04-21T00:22:54;4.90;1.00
46438;DHT22;32137;48.728;9.142;2023-04-21T00:25:20;4.90;1.00
46438;DHT22;32137;48.728;9.142;2023-04-21T00:27:46;4.90;1.00
46438;DHT22;32137;48.728;9.142;2023-04-21T00:30:11;4.90;1.00
46438;DHT22;32137;48.728;9.142;2023-04-21T00:32:37;4.90;1.00
46438;DHT22;32137;48.728;9.142;2023-04-21T00:35:02;4.90;1.00
46438;DHT22;32137;48.728;9.142;2023-04-21T00:37:28;4.90;1.00
46438;DHT22;32137;48.728;9.142;2023-04-21T00:39:54;4.90;1.00
46438;DHT22;32137;48.728;9.142;2023-04-21T00:42:19;4.90;1.00
46438;DHT22;32137;48.728;9.142;2023-04-21T00:44:45;4.90;1.00
46438;DHT22;32137;48.728;9.142;2023-04-21T00:47:10;4.90;1.00
46438;DHT22;32137;48.728;9.142;2023-04-21T00:49:36;4.90;1.00
46438;DHT22;32137;48.728;9.142;2023-04-21T00:52:03;4.90;1.00
46438;DHT22;32137;48.728;9.142;2023-04-21T00:54:28;4.80;1.00
46438;DHT22;32137;48.728;9.142;2023-04-21T00:56:54;4.80;1.00
46438;DHT22;32137;48.728;9.142;2023-04-21T00:59:20;4.80;1.00
46438;DHT22;32137;48.728;9.142;2023-04-21T01:01:45;4.80;1.00
46438;DHT22;32137;48.728;9.142;2023-04-21T01:04:11;4.80;1.00
46438;DHT22;32137;48.728;9.142;2023-04-21T01:06:36;4.80;1.00
46438;DHT22;32137;48.728;9.142;2023-04-21T01:09:02;4.80;1.00
46438;DHT22;32137;48.728;9.142;2023-04-21T01:11:29;4.70;1.00
46438;DHT22;32137;48.728;9.142;2023-04-21T01:13:55;4.80;1.00
46438;DHT22;32137;48.728;9.142;2023-04-21T01:16:21;4.70;1.00
46438;DHT22;32137;48.728;9.142;2023-04-21T01:18:51;4.70;1.00
46438;DHT22;32137;48.728;9.142;2023-04-21T01:21:18;4.70;1.00
46438;DHT22;32137;48.728;9.142;2023-04-21T01:23:43;4.70;1.00
46438;DHT22;32137;48.728;9.142;2023-04-21T01:26:09;4.70;1.00
46438;DHT22;32137;48.728;9.142;2023-04-21T01:28:35;4.70;1.00
46438;DHT22;32137;48.728;9.142;2023-04-21T01:31:00;4.70;1.00
46438;DHT22;32137;48.728;9.142;2023-04-21T01:33:26;4.60;1.00
46438;DHT22;32137;48.728;9.142;2023-04-21T01:35:51;4.60;43.20
46438;DHT22;32137;48.728;9.142;2023-04-21T01:38:17;4.60;72.60
46438;DHT22;32137;48.728;9.142;2023-04-21T01:40:44;4.60;92.40
46438;DHT22;32137;48.728;9.142;2023-04-21T01:43:11;4.60;99.90
46438;DHT22;32137;48.728;9.142;2023-04-21T01:45:36;4.50;99.90
46438;DHT22;32137;48.728;9.142;2023-04-21T01:48:02;4.60;99.90
46438;DHT22;32137;48.728;9.142;2023-04-21T01:50:27;4.60;99.90
46438;DHT22;32137;48.728;9.142;2023-04-21T01:52:52;4.50;99.90
46438;DHT22;32137;48.728;9.142;2023-04-21T01:55:18;4.50;99.90
46438;DHT22;32137;48.728;9.142;2023-04-21T01:57:43;4.50;99.90
46438;DHT22;32137;48.728;9.142;2023-04-21T02:00:09;4.50;99.90
46438;DHT22;32137;48.728;9.142;2023-04-21T02:02:35;4.50;99.90
46438;DHT22;32137;48.728;9.142;2023-04-21T02:05:00;4.50;99.90
46438;DHT22;32137;48.728;9.142;2023-04-21T02:07:26;4.50;99.90
46438;DHT22;32137;48.728;9.142;2023-04-21T02:09:51;4.50;99.90
46438;DHT22;32137;48.728;9.142;2023-04-21T02:12:17;4.50;99.90
46438;DHT22;32137;48.728;9.142;2023-04-21T02:14:42;4.40;99.90
46438;DHT22;32137;48.728;9.142;2023-04-21T02:17:08;4.40;99.90
46438;DHT22;32137;48.728;9.142;2023-04-21T02:19:33;4.40;99.90
46438;DHT22;32137;48.728;9.142;2023-04-21T02:21:59;4.30;99.90
46438;DHT22;32137;48.728;9.142;2023-04-21T02:24:24;4.30;99.90
46438;DHT22;32137;48.728;9.142;2023-04-21T02:26:49;4.30;99.90
46438;DHT22;32137;48.728;9.142;2023-04-21T02:29:15;4.30;99.90
46438;DHT22;32137;48.728;9.142;2023-04-21T02:31:40;4.30;99.90
46438;DHT22;32137;48.728;9.142;2023-04-21T02:34:06;4.20;99.90
46438;DHT22;32137;48.728;9.142;2023-04-21T02:36:32;4.30;99.90
46438;DHT22;32137;48.728;9.142;2023-04-21T02:38:57;4.30;99.90
46438;DHT22;32137;48.728;9.142;2023-04-21T02:41:23;4.20;99.90
46438;DHT22;32137;48.728;9.142;2023-04-21T02:43:48;4.20;99.90
46438;DHT22;32137;48.728;9.142;2023-04-21T02:46:14;4.20;99.90
46438;DHT22;32137;48.728;9.142;2023-04-21T02:48:39;4.20;99.90
46438;DHT22;32137;48.728;9.142;2023-04-21T02:51:09;4.10;99.90
46438;DHT22;32137;48.728;9.142;2023-04-21T02:53:35;4.10;99.90
46438;DHT22;32137;48.728;9.142;2023-04-21T02:56:01;4.00;99.90
46438;DHT22;32137;48.728;9.142;2023-04-21T02:58:29;4.00;99.90
46438;DHT22;32137;48.728;9.142;2023-04-21T03:00:55;4.00;99.90
46438;DHT22;32137;48.728;9.142;2023-04-21T03:03:20;3.90;99.90
46438;DHT22;32137;48.728;9.142;2023-04-21T03:05:46;3.90;99.90
46438;DHT22;32137;48.728;9.142;2023-04-21T03:08:11;3.90;98.90
46438;DHT22;32137;48.728;9.142;2023-04-21T03:10:37;3.90;95.30
46438;DHT22;32137;48.728;9.142;2023-04-21T03:13:02;3.90;55.30
46438;DHT22;32137;48.728;9.142;2023-04-21T03:15:28;3.90;38.00
46438;DHT22;32137;48.728;9.142;2023-04-21T03:17:53;3.90;19.80
46438;DHT22;32137;48.728;9.142;2023-04-21T03:20:19;3.90;23.00
46438;DHT22;32137;48.728;9.142;2023-04-21T03:22:45;3.90;18.50
46438;DHT22;32137;48.728;9.142;2023-04-21T03:25:11;3.90;19.10
46438;DHT22;32137;48.728;9.142;2023-04-21T03:27:36;3.90;17.30
46438;DHT22;32137;48.728;9.142;2023-04-21T03:30:02;4.00;30.20
46438;DHT22;32137;48.728;9.142;2023-04-21T03:32:28;3.90;8.00
46438;DHT22;32137;48.728;9.142;2023-04-21T03:34:54;3.90;10.00
46438;DHT22;32137;48.728;9.142;2023-04-21T03:37:19;3.90;23.30
46438;DHT22;32137;48.728;9.142;2023-04-21T03:39:45;4.00;29.10
46438;DHT22;32137;48.728;9.142;2023-04-21T03:42:10;4.00;7.20
46438;DHT22;32137;48.728;9.142;2023-04-21T03:44:36;4.00;12.20
46438;DHT22;32137;48.728;9.142;2023-04-21T03:47:01;4.00;1.00
46438;DHT22;32137;48.728;9.142;2023-04-21T03:49:28;4.00;1.00
46438;DHT22;32137;48.728;9.142;2023-04-21T03:51:54;4.00;1.00
46438;DHT22;32137;48.728;9.142;2023-04-21T03:54:19;4.00;1.00
46438;DHT22;32137;48.728;9.142;2023-04-21T03:56:45;4.10;1.00
46438;DHT22;32137;48.728;9.142;2023-04-21T03:59:10;4.10;1.00
46438;DHT22;32137;48.728;9.142;2023-04-21T04:01:36;4.10;1.00
46438;DHT22;32137;48.728;9.142;2023-04-21T04:04:01;4.10;1.00
46438;DHT22;32137;48.728;9.142;2023-04-21T04:06:27;4.00;1.00
46438;DHT22;32137;48.728;9.142;2023-04-21T04:08:52;4.00;1.00
46438;DHT22;32137;48.728;9.142;2023-04-21T04:11:18;4.00;1.00
46438;DHT22;32137;48.728;9.142;2023-04-21T04:13:43;4.00;1.00
46438;DHT22;32137;48.728;9.142;2023-04-21T04:16:09;4.00;1.00
46438;DHT22;32137;48.728;9.142;2023-04-21T04:18:34;4.00;1.00
46438;DHT22;32137;48.728;9.142;2023-04-21T04:21:06;4.10;1.00
46438;DHT22;32137;48.728;9.142;2023-04-21T04:23:32;4.00;1.00
46438;DHT22;32137;48.728;9.142;2023-04-21T04:25:57;4.10;1.00
46438;DHT22;32137;48.728;9.142;2023-04-21T04:28:23;4.00;1.00
46438;DHT22;32137;48.728;9.142;2023-04-21T04:30:49;4.10;1.00
46438;DHT22;32137;48.728;9.142;2023-04-21T04:33:14;4.10;1.00
46438;DHT22;32137;48.728;9.142;2023-04-21T04:35:40;4.10;1.00
46438;DHT22;32137;48.728;9.142;2023-04-21T04:38:05;4.10;1.00
46438;DHT22;32137;48.728;9.142;2023-04-21T04:40:32;4.10;1.00
46438;DHT22;32137;48.728;9.142;2023-04-21T04:42:58;4.10;1.00
46438;DHT22;32137;48.728;9.142;2023-04-21T04:45:24;4.10;1.00
46438;DHT22;32137;48.728;9.142;2023-04-21T04:47:50;4.20;1.00
46438;DHT22;32137;48.728;9.142;2023-04-21T04:50:15;4.20;1.00
46438;DHT22;32137;48.728;9.142;2023-04-21T04:52:41;4.20;1.00
46438;DHT22;32137;48.728;9.142;2023-04-21T04:55:09;4.20;1.00
46438;DHT22;32137;48.728;9.142;2023-04-21T04:57:34;4.20;1.00
46438;DHT22;32137;48.728;9.142;2023-04-21T05:00:00;4.30;1.00
46438;DHT22;32137;48.728;9.142;2023-04-21T05:02:25;4.30;1.00
46438;DHT22;32137;48.728;9.142;2023-04-21T05:04:51;4.30;1.00
46438;DHT22;32137;48.728;9.142;2023-04-21T05:07:16;4.30;1.00
46438;DHT22;32137;48.728;9.142;2023-04-21T05:09:41;4.30;1.00
46438;DHT22;32137;48.728;9.142;2023-04-21T05:12:07;4.30;1.00
46438;DHT22;32137;48.728;9.142;2023-04-21T05:14:32;4.30;3.30
46438;DHT22;32137;48.728;9.142;2023-04-21T05:16:58;4.30;13.00
46438;DHT22;32137;48.728;9.142;2023-04-21T05:19:23;4.30;41.50
46438;DHT22;32137;48.728;9.142;2023-04-21T05:21:49;4.40;63.40
46438;DHT22;32137;48.728;9.142;2023-04-21T05:24:14;4.40;79.90
46438;DHT22;32137;48.728;9.142;2023-04-21T05:26:40;4.40;74.90
46438;DHT22;32137;48.728;9.142;2023-04-21T05:29:06;4.40;66.90
46438;DHT22;32137;48.728;9.142;2023-04-21T05:31:31;4.40;76.60
46438;DHT22;32137;48.728;9.142;2023-04-21T05:33:57;4.40;82.00
46438;DHT22;32137;48.728;9.142;2023-04-21T05:36:22;4.40;78.80
46438;DHT22;32137;48.728;9.142;2023-04-21T05:38:49;4.40;93.10
46438;DHT22;32137;48.728;9.142;2023-04-21T05:41:14;4.50;95.00
46438;DHT22;32137;48.728;9.142;2023-04-21T05:43:40;4.50;95.00
46438;DHT22;32137;48.728;9.142;2023-04-21T05:46:07;4.50;90.20
46438;DHT22;32137;48.728;9.142;2023-04-21T05:48:33;4.50;74.30
46438;DHT22;32137;48.728;9.142;2023-04-21T05:51:11;4.60;64.80
46438;DHT22;32137;48.728;9.142;2023-04-21T05:53:38;4.60;58.30
46438;DHT22;32137;48.728;9.142;2023-04-21T05:56:03;4.50;63.30
46438;DHT22;32137;48.728;9.142;2023-04-21T05:58:29;4.50;78.60
46438;DHT22;32137;48.728;9.142;2023-04-21T06:00:54;4.50;85.50
46438;DHT22;32137;48.728;9.142;2023-04-21T06:03:20;4.50;91.00
46438;DHT22;32137;48.728;9.142;2023-04-21T06:05:45;4.40;99.90
46438;DHT22;32137;48.728;9.142;2023-04-21T06:08:11;4.50;99.90
46438;DHT22;32137;48.728;9.142;2023-04-21T06:10:37;4.60;99.90
46438;DHT22;32137;48.728;9.142;2023-04-21T06:13:02;4.80;99.90
46438;DHT22;32137;48.728;9.142;2023-04-21T06:15:27;4.90;99.90
46438;DHT22;32137;48.728;9.142;2023-04-21T06:17:53;4.90;89.40
46438;DHT22;32137;48.728;9.142;2023-04-21T06:20:19;5.00;76.00
46438;DHT22;32137;48.728;9.142;2023-04-21T06:22:45;5.10;71.30
46438;DHT22;32137;48.728;9.142;2023-04-21T06:25:10;5.10;65.30
46438;DHT22;32137;48.728;9.142;2023-04-21T06:27:35;5.20;69.80
46438;DHT22;32137;48.728;9.142;2023-04-21T06:30:01;5.20;57.20
46438;DHT22;32137;48.728;9.142;2023-04-21T06:32:26;5.30;65.90
46438;DHT22;32137;48.728;9.142;2023-04-21T06:43:06;5.20;78.80
46438;DHT22;32137;48.728;9.142;2023-04-21T06:45:31;5.20;72.00
46438;DHT22;32137;48.728;9.142;2023-04-21T06:47:57;5.20;83.70
46438;DHT22;32137;48.728;9.142;2023-04-21T06:50:22;5.20;99.60
46438;DHT22;32137;48.728;9.142;2023-04-21T06:52:48;5.20;96.90
46438;DHT22;32137;48.728;9.142;2023-04-21T06:55:13;5.20;99.90
46438;DHT22;32137;48.728;9.142;2023-04-21T06:57:38;5.20;99.90
46438;DHT22;32137;48.728;9.142;2023-04-21T07:00:04;5.20;99.90
46438;DHT22;32137;48.728;9.142;2023-04-21T07:02:30;5.20;99.90
46438;DHT22;32137;48.728;9.142;2023-04-21T07:04:55;5.30;99.90
46438;DHT22;32137;48.728;9.142;2023-04-21T07:07:20;5.30;99.90
46438;DHT22;32137;48.728;9.142;2023-04-21T07:09:46;5.30;99.90
46438;DHT22;32137;48.728;9.142;2023-04-21T07:12:12;5.30;99.90
46438;DHT22;32137;48.728;9.142;2023-04-21T07:14:38;5.30;99.90
46438;DHT22;32137;48.728;9.142;2023-04-21T07:17:03;5.30;99.90
46438;DHT22;32137;48.728;9.142;2023-04-21T07:19:29;5.30;99.90
46438;DHT22;32137;48.728;9.142;2023-04-21T07:21:54;5.40;99.90
46438;DHT22;32137;48.728;9.142;2023-04-21T07:24:19;5.40;99.90
46438;DHT22;32137;48.728;9.142;2023-04-21T07:26:45;5.40;99.90
46438;DHT22;32137;48.728;9.142;2023-04-21T07:29:10;5.50;99.90
46438;DHT22;32137;48.728;9.142;2023-04-21T07:31:36;5.50;99.90
46438;DHT22;32137;48.728;9.142;2023-04-21T07:34:01;5.50;99.90
46438;DHT22;32137;48.728;9.142;2023-04-21T07:36:27;5.50;99.90
46438;DHT22;32137;48.728;9.142;2023-04-21T07:38:52;5.60;99.90
46438;DHT22;32137;48.728;9.142;2023-04-21T07:41:18;5.80;99.90
46438;DHT22;32137;48.728;9.142;2023-04-21T07:43:43;5.90;99.90
46438;DHT22;32137;48.728;9.142;2023-04-21T07:46:09;6.10;99.90
46438;DHT22;32137;48.728;9.142;2023-04-21T07:48:34;6.20;89.90
46438;DHT22;32137;48.728;9.142;2023-04-21T07:51:00;6.20;54.70
46438;DHT22;32137;48.728;9.142;2023-04-21T07:53:27;6.30;36.20
46438;DHT22;32137;48.728;9.142;2023-04-21T07:55:53;6.40;23.80
46438;DHT22;32137;48.728;9.142;2023-04-21T07:58:19;6.40;30.00
46438;DHT22;32137;48.728;9.142;2023-04-21T08:00:44;6.40;29.80
46438;DHT22;32137;48.728;9.142;2023-04-21T08:03:10;6.40;26.80
46438;DHT22;32137;48.728;9.142;2023-04-21T08:05:35;6.40;24.80
46438;DHT22;32137;48.728;9.142;2023-04-21T08:08:01;6.40;54.10
46438;DHT22;32137;48.728;9.142;2023-04-21T08:10:26;6.30;26.60
46438;DHT22;32137;48.728;9.142;2023-04-21T08:12:52;6.40;44.20
46438;DHT22;32137;48.728;9.142;2023-04-21T08:15:17;6.30;37.60
46438;DHT22;32137;48.728;9.142;2023-04-21T08:17:43;6.30;48.50
46438;DHT22;32137;48.728;9.142;2023-04-21T08:20:08;6.30;47.90
46438;DHT22;32137;48.728;9.142;2023-04-21T08:22:34;6.30;78.40
46438;DHT22;32137;48.728;9.142;2023-04-21T08:25:01;6.40;93.30
46438;DHT22;32137;48.728;9.142;2023-04-21T08:27:26;6.40;66.30
46438;DHT22;32137;48.728;9.142;2023-04-21T08:29:52;6.40;80.60
46438;DHT22;32137;48.728;9.142;2023-04-21T08:32:17;6.50;40.80
46438;DHT22;32137;48.728;9.142;2023-04-21T08:34:48;6.60;30.00
46438;DHT22;32137;48.728;9.142;2023-04-21T08:37:13;6.70;16.00
46438;DHT22;32137;48.728;9.142;2023-04-21T08:39:39;6.70;1.00
46438;DHT22;32137;48.728;9.142;2023-04-21T08:42:04;6.70;1.00
46438;DHT22;32137;48.728;9.142;2023-04-21T08:44:30;6.70;1.00
46438;DHT22;32137;48.728;9.142;2023-04-21T08:46:56;6.80;1.00
46438;DHT22;32137;48.728;9.142;2023-04-21T08:49:23;6.80;1.00
46438;DHT22;32137;48.728;9.142;2023-04-21T08:51:53;6.90;1.00
46438;DHT22;32137;48.728;9.142;2023-04-21T08:54:18;7.10;1.00
46438;DHT22;32137;48.728;9.142;2023-04-21T08:56:46;7.20;1.00
46438;DHT22;32137;48.728;9.142;2023-04-21T08:59:11;7.20;1.00
46438;DHT22;32137;48.728;9.142;2023-04-21T09:04:21;7.30;1.00
46438;DHT22;32137;48.728;9.142;2023-04-21T09:06:46;7.30;1.00
46438;DHT22;32137;48.728;9.142;2023-04-21T09:09:12;7.40;1.00
46438;DHT22;32137;48.728;9.142;2023-04-21T09:11:37;7.40;1.00
46438;DHT22;32137;48.728;9.142;2023-04-21T09:14:03;7.50;1.00
46438;DHT22;32137;48.728;9.142;2023-04-21T09:16:30;7.50;1.00
46438;DHT22;32137;48.728;9.142;2023-04-21T09:18:55;7.40;1.00
46438;DHT22;32137;48.728;9.142;2023-04-21T09:21:21;7.50;1.00
46438;DHT22;32137;48.728;9.142;2023-04-21T09:23:52;7.50;1.00
46438;DHT22;32137;48.728;9.142;2023-04-21T09:26:19;7.50;1.00
46438;DHT22;32137;48.728;9.142;2023-04-21T09:28:47;7.60;1.00
46438;DHT22;32137;48.728;9.142;2023-04-21T09:31:13;7.60;1.00
46438;DHT22;32137;48.728;9.142;2023-04-21T09:36:22;7.80;99.90
46438;DHT22;32137;48.728;9.142;2023-04-21T09:38:58;7.90;1.00
46438;DHT22;32137;48.728;9.142;2023-04-21T09:41:23;7.80;99.90
46438;DHT22;32137;48.728;9.142;2023-04-21T09:43:49;8.00;99.90
46438;DHT22;32137;48.728;9.142;2023-04-21T09:46:15;8.10;99.90
46438;DHT22;32137;48.728;9.142;2023-04-21T09:48:42;8.20;99.90
46438;DHT22;32137;48.728;9.142;2023-04-21T09:51:08;8.30;99.90
46438;DHT22;32137;48.728;9.142;2023-04-21T09:53:34;8.30;99.90
46438;DHT22;32137;48.728;9.142;2023-04-21T09:56:02;8.40;99.90
46438;DHT22;32137;48.728;9.142;2023-04-21T09:58:29;8.40;99.90
46438;DHT22;32137;48.728;9.142;2023-04-21T10:00:57;8.60;99.90
46438;DHT22;32137;48.728;9.142;2023-04-21T10:03:23;8.80;99.90
46438;DHT22;32137;48.728;9.142;2023-04-21T10:05:51;8.90;99.90
46438;DHT22;32137;48.728;9.142;2023-04-21T10:08:16;9.10;99.90
46438;DHT22;32137;48.728;9.142;2023-04-21T10:10:43;9.10;99.90
46438;DHT22;32137;48.728;9.142;2023-04-21T10:13:13;9.10;99.90
46438;DHT22;32137;48.728;9.142;2023-04-21T10:15:40;9.20;99.90
46438;DHT22;32137;48.728;9.142;2023-04-21T10:18:21;9.30;99.90
46438;DHT22;32137;48.728;9.142;2023-04-21T10:25:51;9.50;99.90
46438;DHT22;32137;48.728;9.142;2023-04-21T10:28:17;9.80;99.90
46438;DHT22;32137;48.728;9.142;2023-04-21T10:30:42;9.80;99.90
46438;DHT22;32137;48.728;9.142;2023-04-21T10:33:08;9.80;99.90
46438;DHT22;32137;48.728;9.142;2023-04-21T10:38:33;10.20;99.90
46438;DHT22;32137;48.728;9.142;2023-04-21T10:43:43;10.40;99.90
46438;DHT22;32137;48.728;9.142;2023-04-21T10:46:34;10.60;99.90
46438;DHT22;32137;48.728;9.142;2023-04-21T10:49:10;10.60;99.90
46438;DHT22;32137;48.728;9.142;2023-04-21T10:54:20;10.90;99.90
46438;DHT22;32137;48.728;9.142;2023-04-21T10:56:46;11.00;99.90
46438;DHT22;32137;48.728;9.142;2023-04-21T10:59:12;11.20;99.90
46438;DHT22;32137;48.728;9.142;2023-04-21T11:01:39;11.30;99.90
46438;DHT22;32137;48.728;9.142;2023-04-21T11:04:05;11.30;96.10
46438;DHT22;32137;48.728;9.142;2023-04-21T11:06:30;11.50;76.90
46438;DHT22;32137;48.728;9.142;2023-04-21T11:08:56;11.50;47.20
46438;DHT22;32137;48.728;9.142;2023-04-21T11:11:22;11.60;91.30
46438;DHT22;32137;48.728;9.142;2023-04-21T11:13:53;11.70;91.60
46438;DHT22;32137;48.728;9.142;2023-04-21T11:16:19;11.80;33.40
46438;DHT22;32137;48.728;9.142;2023-04-21T11:18:45;11.90;60.60
46438;DHT22;32137;48.728;9.142;2023-04-21T11:21:14;12.10;25.70
46438;DHT22;32137;48.728;9.142;2023-04-21T11:23:49;12.30;1.00
46438;DHT22;32137;48.728;9.142;2023-04-21T11:26:15;12.50;1.00
46438;DHT22;32137;48.728;9.142;2023-04-21T11:28:40;12.70;1.00
46438;DHT22;32137;48.728;9.142;2023-04-21T11:31:06;13.00;1.00
46438;DHT22;32137;48.728;9.142;2023-04-21T11:33:35;13.30;1.00
46438;DHT22;32137;48.728;9.142;2023-04-21T11:36:05;14.90;99.90
46438;DHT22;32137;48.728;9.142;2023-04-21T11:38:41;15.60;99.90
46438;DHT22;32137;48.728;9.142;2023-04-21T11:41:07;16.50;99.90
46438;DHT22;32137;48.728;9.142;2023-04-21T11:43:34;19.10;1.00
46438;DHT22;32137;48.728;9.142;2023-04-21T11:46:12;22.40;99.90
46438;DHT22;32137;48.728;9.142;2023-04-21T11:48:41;25.00;99.90
46438;DHT22;32137;48.728;9.142;2023-04-21T11:51:13;27.10;87.90
46438;DHT22;32137;48.728;9.142;2023-04-21T11:53:38;28.90;36.50
46438;DHT22;32137;48.728;9.142;2023-04-21T11:56:04;30.30;10.70
46438;DHT22;32137;48.728;9.142;2023-04-21T11:58:30;31.10;1.00
46438;DHT22;32137;48.728;9.142;2023-04-21T12:00:55;32.20;1.00
46438;DHT22;32137;48.728;9.142;2023-04-21T12:03:21;33.20;1.00
46438;DHT22;32137;48.728;9.142;2023-04-21T12:05:55;33.70;1.00
46438;DHT22;32137;48.728;9.142;2023-04-21T12:08:21;34.60;1.00
46438;DHT22;32137;48.728;9.142;2023-04-21T12:10:47;34.30;1.00
46438;DHT22;32137;48.728;9.142;2023-04-21T12:13:22;34.70;1.00
46438;DHT22;32137;48.728;9.142;2023-04-21T12:15:48;35.10;1.00
46438;DHT22;32137;48.728;9.142;2023-04-21T12:18:13;36.00;1.00
46438;DHT22;32137;48.728;9.142;2023-04-21T12:20:48;36.40;1.00
46438;DHT22;32137;48.728;9.142;2023-04-21T12:23:14;37.00;1.00
46438;DHT22;32137;48.728;9.142;2023-04-21T12:25:40;37.60;1.00
46438;DHT22;32137;48.728;9.142;2023-04-21T12:28:07;37.70;1.00
46438;DHT22;32137;48.728;9.142;2023-04-21T12:30:33;37.50;1.00
46438;DHT22;32137;48.728;9.142;2023-04-21T12:32:59;36.30;1.00
46438;DHT22;32137;48.728;9.142;2023-04-21T12:35:25;35.80;1.00
46438;DHT22;32137;48.728;9.142;2023-04-21T12:37:51;35.80;1.00
46438;DHT22;32137;48.728;9.142;2023-04-21T12:40:16;36.20;1.00
46438;DHT22;32137;48.728;9.142;2023-04-21T12:42:42;36.20;1.00
46438;DHT22;32137;48.728;9.142;2023-04-21T12:45:08;36.30;1.00
46438;DHT22;32137;48.728;9.142;2023-04-21T12:47:34;35.80;1.00
46438;DHT22;32137;48.728;9.142;2023-04-21T12:50:01;34.50;1.00
46438;DHT22;32137;48.728;9.142;2023-04-21T12:52:26;33.00;1.00
46438;DHT22;32137;48.728;9.142;2023-04-21T12:54:52;31.30;1.00
46438;DHT22;32137;48.728;9.142;2023-04-21T12:57:17;29.80;1.00
46438;DHT22;32137;48.728;9.142;2023-04-21T12:59:43;28.50;1.00
46438;DHT22;32137;48.728;9.142;2023-04-21T13:02:08;27.60;1.00
46438;DHT22;32137;48.728;9.142;2023-04-21T13:04:34;27.00;2.60
46438;DHT22;32137;48.728;9.142;2023-04-21T13:07:00;26.40;7.70
46438;DHT22;32137;48.728;9.142;2023-04-21T13:09:26;25.90;12.30
46438;DHT22;32137;48.728;9.142;2023-04-21T13:11:52;25.50;13.90
46438;DHT22;32137;48.728;9.142;2023-04-21T13:14:17;25.20;27.80
46438;DHT22;32137;48.728;9.142;2023-04-21T13:16:44;25.10;23.20
46438;DHT22;32137;48.728;9.142;2023-04-21T13:19:09;24.90;50.20
46438;DHT22;32137;48.728;9.142;2023-04-21T13:21:35;24.70;37.30
46438;DHT22;32137;48.728;9.142;2023-04-21T13:24:00;24.70;52.80
46438;DHT22;32137;48.728;9.142;2023-04-21T13:26:27;24.70;37.10
46438;DHT22;32137;48.728;9.142;2023-04-21T13:28:53;24.50;51.10
46438;DHT22;32137;48.728;9.142;2023-04-21T13:31:18;24.50;43.50
46438;DHT22;32137;48.728;9.142;2023-04-21T13:33:44;24.40;31.10
46438;DHT22;32137;48.728;9.142;2023-04-21T13:36:10;24.40;26.10
46438;DHT22;32137;48.728;9.142;2023-04-21T13:38:36;24.30;35.90
46438;DHT22;32137;48.728;9.142;2023-04-21T13:41:03;24.20;32.70
46438;DHT22;32137;48.728;9.142;2023-04-21T13:43:29;24.20;64.90
46438;DHT22;32137;48.728;9.142;2023-04-21T13:45:56;24.00;43.70
46438;DHT22;32137;48.728;9.142;2023-04-21T13:48:22;23.90;38.70
46438;DHT22;32137;48.728;9.142;2023-04-21T13:50:48;23.80;25.30
46438;DHT22;32137;48.728;9.142;2023-04-21T13:53:14;23.70;19.60
46438;DHT22;32137;48.728;9.142;2023-04-21T13:55:43;23.60;36.50
46438;DHT22;32137;48.728;9.142;2023-04-21T13:58:09;23.90;29.20
46438;DHT22;32137;48.728;9.142;2023-04-21T14:00:36;24.30;18.30
46438;DHT22;32137;48.728;9.142;2023-04-21T14:03:01;24.70;18.40
46438;DHT22;32137;48.728;9.142;2023-04-21T14:05:27;24.90;15.30
46438;DHT22;32137;48.728;9.142;2023-04-21T14:07:53;25.00;4.70
46438;DHT22;32137;48.728;9.142;2023-04-21T14:10:18;24.90;3.10
46438;DHT22;32137;48.728;9.142;2023-04-21T14:12:44;24.90;2.10
46438;DHT22;32137;48.728;9.142;2023-04-21T14:15:10;24.90;5.10
46438;DHT22;32137;48.728;9.142;2023-04-21T14:17:36;25.00;6.90
46438;DHT22;32137;48.728;9.142;2023-04-21T14:20:02;25.10;2.80
46438;DHT22;32137;48.728;9.142;2023-04-21T14:22:28;25.30;1.30
46438;DHT22;32137;48.728;9.142;2023-04-21T14:24:54;25.40;4.10
46438;DHT22;32137;48.728;9.142;2023-04-21T14:27:19;25.30;3.20
46438;DHT22;32137;48.728;9.142;2023-04-21T14:29:45;25.30;1.80
46438;DHT22;32137;48.728;9.142;2023-04-21T14:32:11;25.30;1.10
46438;DHT22;32137;48.728;9.142;2023-04-21T14:34:36;25.30;4.70
46438;DHT22;32137;48.728;9.142;2023-04-21T14:37:02;25.20;1.00
46438;DHT22;32137;48.728;9.142;2023-04-21T14:39:27;25.00;1.00
46438;DHT22;32137;48.728;9.142;2023-04-21T14:41:53;24.80;1.00
46438;DHT22;32137;48.728;9.142;2023-04-21T14:44:18;24.70;7.30
46438;DHT22;32137;48.728;9.142;2023-04-21T14:46:44;24.70;1.00
46438;DHT22;32137;48.728;9.142;2023-04-21T14:49:10;24.50;2.70
46438;DHT22;32137;48.728;9.142;2023-04-21T14:51:35;24.60;3.20
46438;DHT22;32137;48.728;9.142;2023-04-21T14:54:03;24.50;5.60
46438;DHT22;32137;48.728;9.142;2023-04-21T14:56:29;24.50;4.90
46438;DHT22;32137;48.728;9.142;2023-04-21T14:58:54;24.50;9.00
46438;DHT22;32137;48.728;9.142;2023-04-21T15:01:20;24.50;11.30
46438;DHT22;32137;48.728;9.142;2023-04-21T15:03:46;24.50;10.80
46438;DHT22;32137;48.728;9.142;2023-04-21T15:06:11;24.60;11.10
46438;DHT22;32137;48.728;9.142;2023-04-21T15:08:37;24.40;8.60
46438;DHT22;32137;48.728;9.142;2023-04-21T15:11:02;24.60;12.50
46438;DHT22;32137;48.728;9.142;2023-04-21T15:13:29;24.50;16.40
46438;DHT22;32137;48.728;9.142;2023-04-21T15:15:55;24.30;14.50
46438;DHT22;32137;48.728;9.142;2023-04-21T15:18:20;24.10;23.00
46438;DHT22;32137;48.728;9.142;2023-04-21T15:20:46;23.70;24.30
46438;DHT22;32137;48.728;9.142;2023-04-21T15:23:11;23.40;31.30
46438;DHT22;32137;48.728;9.142;2023-04-21T15:25:37;23.10;49.80
46438;DHT22;32137;48.728;9.142;2023-04-21T15:28:03;22.90;58.90
46438;DHT22;32137;48.728;9.142;2023-04-21T15:30:28;22.60;52.30
46438;DHT22;32137;48.728;9.142;2023-04-21T15:32:54;22.50;66.40
46438;DHT22;32137;48.728;9.142;2023-04-21T15:35:20;22.30;84.00
46438;DHT22;32137;48.728;9.142;2023-04-21T15:37:45;22.20;94.70
46438;DHT22;32137;48.728;9.142;2023-04-21T15:40:11;22.20;90.60
46438;DHT22;32137;48.728;9.142;2023-04-21T15:42:37;22.10;94.50
46438;DHT22;32137;48.728;9.142;2023-04-21T15:45:03;22.00;99.40
46438;DHT22;32137;48.728;9.142;2023-04-21T15:47:28;21.90;99.90
46438;DHT22;32137;48.728;9.142;2023-04-21T15:49:54;21.90;94.40
46438;DHT22;32137;48.728;9.142;2023-04-21T15:52:20;21.80;99.90
46438;DHT22;32137;48.728;9.142;2023-04-21T15:54:45;22.00;99.90
46438;DHT22;32137;48.728;9.142;2023-04-21T15:57:11;21.90;99.30
46438;DHT22;32137;48.728;9.142;2023-04-21T15:59:37;22.10;99.90
46438;DHT22;32137;48.728;9.142;2023-04-21T16:02:03;22.10;96.40
46438;DHT22;32137;48.728;9.142;2023-04-21T16:04:28;22.00;92.90
46438;DHT22;32137;48.728;9.142;2023-04-21T16:06:54;22.00;94.80